Time;durP1;ratioP1;P1;durP2;ratioP2;P2;SDS_P1;SDS_P2;PMS_P1;PMS_P2;Temp;Humidity;BMP_temperature;BMP_pressure;BME280_temperature;BME280_humidity;BME280_pressure;Samples;Min_cycle;Max_cycle;Signal;HPM_P1;HPM_P2
2022/10/23 00:01:00;;;;;;;8.55;5.50;;;15.80;99.90;;;;;;5070887;28;21093;-71
2022/10/23 00:03:25;;;;;;;9.43;5.55;;;15.80;99.90;;;;;;5070951;28;20044;-71
2022/10/23 00:05:51;;;;;;;8.80;5.60;;;15.70;99.90;;;;;;5071470;28;20029;-71
2022/10/23 00:08:16;;;;;;;9.00;5.68;;;15.70;99.90;;;;;;5070532;28;20028;-71
2022/10/23 00:10:42;;;;;;;7.65;5.30;;;15.70;99.90;;;;;;5071470;28;20528;-71
2022/10/23 00:13:08;;;;;;;7.72;5.85;;;15.70;99.90;;;;;;5073919;28;20067;-70
2022/10/23 00:15:35;;;;;;;8.35;5.57;;;15.70;99.90;;;;;;5075136;28;20035;-71
2022/10/23 00:18:02;;;;;;;8.65;5.65;;;15.60;99.90;;;;;;5074837;28;20047;-70
2022/10/23 00:20:27;;;;;;;11.45;6.20;;;15.60;99.90;;;;;;5075463;28;20184;-70
2022/10/23 00:22:53;;;;;;;8.52;5.68;;;15.60;99.90;;;;;;5075141;28;20025;-70
2022/10/23 00:25:19;;;;;;;9.73;6.13;;;15.60;99.90;;;;;;5075743;28;20036;-71
2022/10/23 00:27:45;;;;;;;7.80;5.53;;;15.60;99.90;;;;;;5075195;28;20021;-71
2022/10/23 00:30:12;;;;;;;8.15;5.60;;;15.60;99.90;;;;;;5075818;28;20033;-71
2022/10/23 00:32:37;;;;;;;7.70;6.30;;;15.50;99.90;;;;;;5076474;28;20554;-71
2022/10/23 00:35:04;;;;;;;8.75;6.00;;;15.50;99.90;;;;;;5075145;28;20111;-71
2022/10/23 00:37:30;;;;;;;8.23;5.78;;;15.50;99.90;;;;;;5074251;28;20025;-70
2022/10/23 00:39:55;;;;;;;8.90;6.28;;;15.40;99.90;;;;;;5074766;28;20027;-70
2022/10/23 00:42:22;;;;;;;9.50;6.13;;;15.40;99.90;;;;;;5073164;28;20029;-71
2022/10/23 00:44:48;;;;;;;7.65;5.95;;;15.40;99.90;;;;;;5074504;28;20051;-70
2022/10/23 00:47:13;;;;;;;8.90;6.50;;;15.40;99.90;;;;;;5074768;28;20063;-70
2022/10/23 00:49:39;;;;;;;7.63;5.40;;;15.40;99.90;;;;;;5074299;28;20029;-70
2022/10/23 00:52:08;;;;;;;8.25;5.95;;;15.40;99.90;;;;;;5074392;28;20410;-70
2022/10/23 00:54:40;;;;;;;10.23;6.15;;;15.40;99.90;;;;;;5074127;28;20032;-71
2022/10/23 00:57:12;;;;;;;8.50;6.40;;;15.40;99.90;;;;;;5074458;28;20111;-70
2022/10/23 00:59:38;;;;;;;9.50;5.93;;;15.40;99.90;;;;;;5074363;28;20059;-71
2022/10/23 01:02:04;;;;;;;8.40;6.32;;;15.40;99.90;;;;;;5074114;28;20033;-71
2022/10/23 01:04:31;;;;;;;9.48;6.10;;;15.40;99.90;;;;;;5074298;28;20046;-71
2022/10/23 01:07:26;;;;;;;8.82;6.22;;;15.40;99.90;;;;;;5073806;28;20031;-71
2022/10/23 01:10:22;;;;;;;9.98;6.43;;;15.40;99.90;;;;;;5074457;28;20028;-70
2022/10/23 01:13:19;;;;;;;6.97;6.15;;;15.40;99.90;;;;;;5065584;28;20386;-70
2022/10/23 01:15:54;;;;;;;6.35;5.63;;;15.40;99.90;;;;;;5073769;28;20115;-70
2022/10/23 01:18:25;;;;;;;7.95;6.28;;;15.40;99.90;;;;;;5054050;28;20392;-71
2022/10/23 01:21:07;;;;;;;9.38;6.50;;;15.40;99.90;;;;;;5056354;28;20358;-72
2022/10/23 01:23:53;;;;;;;9.35;6.03;;;15.40;99.90;;;;;;5073294;28;20439;-69
2022/10/23 01:27:15;;;;;;;7.95;6.22;;;15.40;99.90;;;;;;5073455;28;20040;-71
2022/10/23 01:29:45;;;;;;;6.97;5.68;;;15.40;99.90;;;;;;5017704;28;20441;-71
2022/10/23 01:32:34;;;;;;;8.70;5.80;;;15.30;99.90;;;;;;5069965;28;20067;-71
2022/10/23 01:35:25;;;;;;;8.70;5.75;;;15.40;99.90;;;;;;5073882;28;20377;-70
2022/10/23 01:38:04;;;;;;;8.65;6.18;;;15.40;99.90;;;;;;5073124;28;20056;-71
2022/10/23 01:40:42;;;;;;;7.40;5.85;;;15.40;99.90;;;;;;5073657;28;20412;-71
2022/10/23 01:43:15;;;;;;;7.05;5.85;;;15.40;99.90;;;;;;5073422;28;20123;-71
2022/10/23 01:46:00;;;;;;;9.55;5.95;;;15.40;99.90;;;;;;5072103;28;20375;-72
2022/10/23 01:48:34;;;;;;;8.13;6.25;;;15.30;99.90;;;;;;5073557;28;20043;-72
2022/10/23 01:51:03;;;;;;;;;;;15.30;99.90;;;;;;5073696;28;20500;-72
2022/10/23 01:53:32;;;;;;;7.63;5.70;;;15.30;99.90;;;;;;5073400;28;20363;-71
2022/10/23 01:56:01;;;;;;;7.07;5.72;;;15.30;99.90;;;;;;5073314;28;20680;-72
2022/10/23 01:58:30;;;;;;;11.40;6.10;;;15.30;99.90;;;;;;5073227;28;20024;-72
2022/10/23 02:01:00;;;;;;;8.63;5.90;;;15.30;99.90;;;;;;5073105;28;21037;-72
2022/10/23 02:03:30;;;;;;;7.57;5.20;;;15.30;99.90;;;;;;5071916;28;20040;-72
2022/10/23 02:05:56;;;;;;;6.90;5.82;;;15.30;99.90;;;;;;5073589;28;20517;-72
2022/10/23 02:08:24;;;;;;;10.25;5.53;;;15.30;99.90;;;;;;5063809;28;20099;-72
2022/10/23 02:11:10;;;;;;;7.90;5.68;;;15.20;99.90;;;;;;5071186;28;20059;-72
2022/10/23 02:13:57;;;;;;;7.05;5.57;;;15.20;99.90;;;;;;5056838;28;20029;-72
2022/10/23 02:16:22;;;;;;;7.38;6.13;;;15.10;99.90;;;;;;5053555;28;20495;-71
2022/10/23 02:19:08;;;;;;;10.25;6.22;;;15.20;99.90;;;;;;5073042;28;20055;-71
2022/10/23 02:22:11;;;;;;;7.80;5.93;;;15.10;99.90;;;;;;5072492;28;20120;-71
2022/10/23 02:24:57;;;;;;;9.05;5.78;;;15.10;99.90;;;;;;5072335;28;20123;-71
2022/10/23 02:27:35;;;;;;;9.23;5.65;;;15.10;99.90;;;;;;5072980;28;20024;-71
2022/10/23 02:30:13;;;;;;;8.32;5.78;;;15.20;99.90;;;;;;5072360;28;20463;-71
2022/10/23 02:32:44;;;;;;;7.88;5.75;;;15.20;99.90;;;;;;5072384;28;20037;-72
2022/10/23 02:35:10;;;;;;;8.15;6.28;;;15.20;99.90;;;;;;5072075;28;20383;-70
2022/10/23 02:37:35;;;;;;;11.10;6.90;;;15.20;99.90;;;;;;5071951;28;20017;-71
2022/10/23 02:40:02;;;;;;;13.43;6.93;;;15.20;99.90;;;;;;5072357;28;20483;-71
2022/10/23 02:42:34;;;;;;;9.70;6.22;;;15.20;99.90;;;;;;5072385;28;20024;-71
2022/10/23 02:45:16;;;;;;;10.60;6.40;;;15.20;99.90;;;;;;5072495;28;20119;-71
2022/10/23 02:48:03;;;;;;;8.32;6.60;;;15.20;99.90;;;;;;5071929;28;20067;-71
2022/10/23 02:50:52;;;;;;;8.52;5.90;;;15.20;99.90;;;;;;5072370;28;20032;-71
2022/10/23 02:53:35;;;;;;;13.23;6.78;;;15.20;99.90;;;;;;5071623;28;20046;-71
2022/10/23 02:56:22;;;;;;;8.85;6.28;;;15.20;99.90;;;;;;5072450;28;20078;-71
2022/10/23 02:59:03;;;;;;;8.25;5.80;;;15.20;99.90;;;;;;5070712;28;20107;-70
2022/10/23 03:01:37;;;;;;;10.10;6.32;;;15.20;99.90;;;;;;5072396;28;20036;-70
2022/10/23 03:04:05;;;;;;;9.73;6.07;;;15.20;99.90;;;;;;5072315;28;20029;-70
2022/10/23 03:06:32;;;;;;;9.95;6.28;;;15.20;99.90;;;;;;5071847;28;20090;-70
2022/10/23 03:09:01;;;;;;;8.93;6.55;;;15.10;99.90;;;;;;5072045;28;20379;-70
2022/10/23 03:11:27;;;;;;;9.43;5.97;;;15.10;99.90;;;;;;5071448;28;20024;-70
2022/10/23 03:13:52;;;;;;;11.52;6.82;;;15.10;99.90;;;;;;5071983;28;20024;-69
2022/10/23 03:16:18;;;;;;;9.85;6.28;;;15.10;99.90;;;;;;5071297;28;20036;-70
2022/10/23 03:18:43;;;;;;;7.15;5.80;;;15.00;99.90;;;;;;5072019;28;20471;-70
2022/10/23 03:21:09;;;;;;;12.77;6.65;;;15.00;99.90;;;;;;5071595;28;20055;-70
2022/10/23 03:23:35;;;;;;;8.60;6.20;;;15.00;99.90;;;;;;5071776;28;20506;-70
2022/10/23 03:26:01;;;;;;;9.60;6.55;;;15.00;99.90;;;;;;5071628;28;20085;-71
2022/10/23 03:28:26;;;;;;;8.63;6.75;;;15.00;99.90;;;;;;5072085;28;20027;-71
2022/10/23 03:30:52;;;;;;;6.85;5.53;;;14.90;99.90;;;;;;5071623;28;20016;-70
2022/10/23 03:33:18;;;;;;;9.70;6.93;;;15.00;99.90;;;;;;5071810;28;20384;-71
2022/10/23 03:35:43;;;;;;;7.68;5.22;;;15.00;99.90;;;;;;5071471;28;20036;-70
2022/10/23 03:38:09;;;;;;;9.93;7.15;;;15.00;99.90;;;;;;5072024;28;20104;-70
2022/10/23 03:40:37;;;;;;;12.32;6.07;;;14.90;99.90;;;;;;5071738;28;20043;-70
2022/10/23 03:43:02;;;;;;;9.02;6.50;;;14.90;99.90;;;;;;5071668;28;20119;-71
2022/10/23 03:45:28;;;;;;;9.30;6.45;;;14.90;99.90;;;;;;5071433;28;20116;-71
2022/10/23 03:47:53;;;;;;;11.57;6.57;;;14.90;99.90;;;;;;5075725;28;20589;-71
2022/10/23 03:50:19;;;;;;;11.65;6.85;;;14.80;99.90;;;;;;5078255;28;20028;-71
2022/10/23 03:52:45;;;;;;;8.18;6.10;;;14.80;99.90;;;;;;5078020;28;20086;-70
2022/10/23 03:55:13;;;;;;;8.77;6.60;;;14.80;99.90;;;;;;5078056;28;20035;-70
2022/10/23 03:57:39;;;;;;;10.13;7.07;;;14.80;99.90;;;;;;5078078;28;20467;-70
2022/10/23 04:00:06;;;;;;;10.23;6.93;;;14.80;99.90;;;;;;5078046;28;20040;-70
2022/10/23 04:02:32;;;;;;;11.68;6.32;;;14.70;99.90;;;;;;5075626;28;20021;-70
2022/10/23 04:04:57;;;;;;;9.57;6.45;;;14.70;99.90;;;;;;5077742;28;20082;-69
2022/10/23 04:07:23;;;;;;;10.70;6.18;;;14.70;99.90;;;;;;5078242;28;20063;-70
2022/10/23 04:09:48;;;;;;;9.73;6.43;;;14.70;99.90;;;;;;5077737;28;20020;-69
2022/10/23 04:12:14;;;;;;;9.73;6.43;;;14.70;99.90;;;;;;5078392;28;20017;-70
2022/10/23 04:14:40;;;;;;;10.75;7.10;;;14.60;99.90;;;;;;5077762;28;20016;-69
2022/10/23 04:17:05;;;;;;;12.95;6.97;;;14.60;99.90;;;;;;5078102;28;20522;-70
2022/10/23 04:19:31;;;;;;;9.85;6.93;;;14.50;99.90;;;;;;5077974;28;20016;-69
2022/10/23 04:21:57;;;;;;;11.15;6.75;;;14.50;99.90;;;;;;5077867;28;21017;-69
2022/10/23 04:24:24;;;;;;;9.52;6.53;;;14.50;99.90;;;;;;5077539;28;20033;-69
2022/10/23 04:26:50;;;;;;;10.40;7.05;;;14.50;99.90;;;;;;5069011;28;20384;-69
2022/10/23 04:29:16;;;;;;;10.15;7.18;;;14.40;99.90;;;;;;5066185;28;20487;-69
2022/10/23 04:31:42;;;;;;;9.85;6.47;;;14.40;99.90;;;;;;5066751;28;20043;-69
2022/10/23 04:34:07;;;;;;;8.75;6.75;;;14.40;99.90;;;;;;5071332;28;20423;-69
2022/10/23 04:36:33;;;;;;;9.65;6.60;;;14.30;99.90;;;;;;5077697;28;20051;-71
2022/10/23 04:38:59;;;;;;;12.65;7.10;;;14.30;99.90;;;;;;5077500;28;20488;-69
2022/10/23 04:41:25;;;;;;;10.02;6.85;;;14.20;99.90;;;;;;5077823;28;20070;-69
2022/10/23 04:43:50;;;;;;;11.25;6.95;;;14.20;99.90;;;;;;5076883;28;20071;-69
2022/10/23 04:46:16;;;;;;;9.00;6.70;;;14.10;99.90;;;;;;5077776;28;20056;-69
2022/10/23 04:48:43;;;;;;;9.73;6.93;;;14.10;99.90;;;;;;5077587;28;20036;-70
2022/10/23 04:51:09;;;;;;;11.52;6.63;;;14.00;99.90;;;;;;5077822;28;20035;-70
2022/10/23 04:53:35;;;;;;;9.95;7.15;;;14.00;99.90;;;;;;5077374;28;20111;-70
2022/10/23 04:56:00;;;;;;;12.13;7.22;;;14.00;99.90;;;;;;5077475;28;20029;-70
2022/10/23 04:58:27;;;;;;;10.20;6.60;;;13.90;99.90;;;;;;5075688;28;20029;-70
2022/10/23 05:00:53;;;;;;;10.00;6.93;;;13.90;99.90;;;;;;5074370;28;20468;-70
2022/10/23 05:03:21;;;;;;;14.88;8.23;;;13.90;99.90;;;;;;5073867;28;20036;-70
2022/10/23 05:05:46;;;;;;;9.05;6.47;;;13.90;99.90;;;;;;5074770;28;20456;-71
2022/10/23 05:08:13;;;;;;;11.23;6.97;;;13.80;99.90;;;;;;5073743;28;20036;-71
2022/10/23 05:10:40;;;;;;;11.07;7.72;;;13.80;99.90;;;;;;5072779;28;20039;-71
2022/10/23 05:13:06;;;;;;;15.05;7.03;;;13.80;99.90;;;;;;5074220;28;20024;-71
2022/10/23 05:15:31;;;;;;;10.77;7.00;;;13.80;99.90;;;;;;5074274;28;20036;-71
2022/10/23 05:18:07;;;;;;;12.73;7.35;;;13.70;99.90;;;;;;5072171;28;20047;-71
2022/10/23 05:20:34;;;;;;;11.23;7.05;;;13.70;99.90;;;;;;5074387;28;20082;-71
2022/10/23 05:23:01;;;;;;;8.52;6.78;;;13.70;99.90;;;;;;5073646;28;20029;-71
2022/10/23 05:25:29;;;;;;;10.85;7.55;;;13.70;99.90;;;;;;5072603;28;20024;-71
2022/10/23 05:27:54;;;;;;;9.30;6.97;;;13.70;99.90;;;;;;5074292;28;20028;-70
2022/10/23 05:30:20;;;;;;;11.13;7.05;;;13.70;99.90;;;;;;5074167;28;20028;-70
2022/10/23 05:32:46;;;;;;;9.57;6.90;;;13.70;99.90;;;;;;5073177;28;20094;-70
2022/10/23 05:35:18;;;;;;;9.93;7.20;;;13.60;99.90;;;;;;5073618;28;20032;-71
2022/10/23 05:37:47;;;;;;;9.55;6.75;;;13.70;99.90;;;;;;5073262;28;20031;-70
2022/10/23 05:40:13;;;;;;;9.15;7.40;;;13.60;99.90;;;;;;5073879;28;20028;-70
2022/10/23 05:42:38;;;;;;;10.32;7.05;;;13.60;99.90;;;;;;5072850;28;20384;-70
2022/10/23 05:45:04;;;;;;;10.55;7.80;;;13.60;99.90;;;;;;5073642;28;20028;-71
2022/10/23 05:47:31;;;;;;;12.65;7.22;;;13.60;99.90;;;;;;5073437;28;20025;-71
2022/10/23 05:49:56;;;;;;;9.80;6.97;;;13.60;99.90;;;;;;5073341;28;20016;-70
2022/10/23 05:52:23;;;;;;;10.88;7.15;;;13.60;99.90;;;;;;5073226;28;20046;-71
2022/10/23 05:54:51;;;;;;;9.30;7.35;;;13.50;99.90;;;;;;5073470;28;20125;-71
2022/10/23 05:57:17;;;;;;;9.40;6.90;;;13.50;99.90;;;;;;5071427;28;20078;-70
2022/10/23 05:59:43;;;;;;;9.38;7.22;;;13.50;99.90;;;;;;5070817;28;20028;-70
2022/10/23 06:02:09;;;;;;;10.77;7.03;;;13.50;99.90;;;;;;5062899;28;20120;-70
2022/10/23 06:04:35;;;;;;;10.82;7.75;;;13.50;99.90;;;;;;5068111;28;20128;-70
2022/10/23 06:07:02;;;;;;;10.48;7.20;;;13.50;99.90;;;;;;5053655;28;20083;-71
2022/10/23 06:09:28;;;;;;;11.85;7.30;;;13.50;99.90;;;;;;5054792;28;20613;-71
2022/10/23 06:11:53;;;;;;;10.00;7.13;;;13.50;99.90;;;;;;5072906;28;20126;-75
2022/10/23 06:14:19;;;;;;;10.10;7.68;;;13.50;99.90;;;;;;5053939;28;20428;-72
2022/10/23 06:16:44;;;;;;;11.93;6.97;;;13.50;99.90;;;;;;5063518;28;20020;-72
2022/10/23 06:19:11;;;;;;;11.45;7.30;;;13.50;99.90;;;;;;5053146;28;20025;-74
2022/10/23 06:21:38;;;;;;;9.73;7.18;;;13.50;99.90;;;;;;5070821;28;20456;-69
2022/10/23 06:24:06;;;;;;;10.32;7.22;;;13.50;99.90;;;;;;5072915;28;20050;-71
2022/10/23 06:26:32;;;;;;;9.18;7.03;;;13.50;99.90;;;;;;5071870;28;20081;-71
2022/10/23 06:28:59;;;;;;;11.43;6.88;;;13.50;99.90;;;;;;5071333;28;20020;-71
2022/10/23 06:31:26;;;;;;;10.55;7.82;;;13.50;99.90;;;;;;5072267;28;20101;-70
2022/10/23 06:33:56;;;;;;;11.63;8.07;;;13.50;99.90;;;;;;5071028;28;20048;-70
2022/10/23 06:36:22;;;;;;;10.40;8.15;;;13.50;99.90;;;;;;5072691;28;20066;-71
2022/10/23 06:38:48;;;;;;;9.80;7.38;;;13.50;99.90;;;;;;5070977;28;20111;-71
2022/10/23 06:41:17;;;;;;;13.40;8.20;;;13.50;99.90;;;;;;5072506;28;20040;-71
2022/10/23 06:43:43;;;;;;;14.13;8.80;;;13.60;99.90;;;;;;5072067;28;20039;-72
2022/10/23 06:46:09;;;;;;;12.25;7.53;;;13.60;99.90;;;;;;5072114;28;20024;-71
2022/10/23 06:48:35;;;;;;;10.27;7.60;;;13.60;99.90;;;;;;5072451;28;20035;-72
2022/10/23 06:51:09;;;;;;;11.25;7.55;;;13.60;99.90;;;;;;5072089;28;20021;-71
2022/10/23 06:53:35;;;;;;;11.57;7.68;;;13.70;99.90;;;;;;5052639;28;20427;-71
2022/10/23 06:56:03;;;;;;;15.93;8.38;;;13.70;99.90;;;;;;5068503;28;20032;-73
2022/10/23 06:58:28;;;;;;;9.70;7.80;;;13.70;99.90;;;;;;5065661;28;20150;-72
2022/10/23 07:00:55;;;;;;;10.35;8.20;;;13.70;99.90;;;;;;5071937;28;20032;-72
2022/10/23 07:03:21;;;;;;;12.07;9.15;;;13.70;99.90;;;;;;5071568;28;20055;-72
2022/10/23 07:05:47;;;;;;;10.18;7.97;;;13.80;99.90;;;;;;5070611;28;20020;-72
2022/10/23 07:08:13;;;;;;;10.70;7.82;;;13.80;99.90;;;;;;5071591;28;20030;-72
2022/10/23 07:10:42;;;;;;;10.43;8.00;;;13.90;99.90;;;;;;5072178;28;20108;-73
2022/10/23 07:13:11;;;;;;;11.95;8.85;;;13.90;99.90;;;;;;5071842;28;20027;-73
2022/10/23 07:15:37;;;;;;;10.82;8.63;;;13.90;99.90;;;;;;5071704;28;20480;-72
2022/10/23 07:18:03;;;;;;;10.80;8.55;;;13.90;99.90;;;;;;5071705;28;20107;-72
2022/10/23 07:20:29;;;;;;;11.75;8.52;;;14.00;99.90;;;;;;5071700;28;20039;-72
2022/10/23 07:22:55;;;;;;;13.20;8.00;;;14.10;99.90;;;;;;5070984;28;20483;-72
2022/10/23 07:25:25;;;;;;;11.68;8.25;;;14.10;99.90;;;;;;5071555;28;20040;-72
2022/10/23 07:27:51;;;;;;;11.55;7.75;;;14.10;99.90;;;;;;5071250;28;20029;-72
2022/10/23 07:30:19;;;;;;;10.45;8.25;;;14.20;99.90;;;;;;5064284;28;20029;-72
2022/10/23 07:32:44;;;;;;;10.25;8.23;;;14.30;99.90;;;;;;5064708;28;20052;-71
2022/10/23 07:35:11;;;;;;;12.95;8.43;;;14.30;99.90;;;;;;5071256;28;20033;-73
2022/10/23 07:37:37;;;;;;;13.80;8.77;;;14.30;99.90;;;;;;5070240;28;20107;-74
2022/10/23 07:40:04;;;;;;;13.02;9.55;;;14.40;99.90;;;;;;5071465;28;20060;-74
2022/10/23 07:42:30;;;;;;;11.02;8.10;;;14.40;99.90;;;;;;5069849;28;20074;-74
2022/10/23 07:44:56;;;;;;;11.60;8.52;;;14.50;99.90;;;;;;5070582;28;20036;-74
2022/10/23 07:47:23;;;;;;;10.18;8.05;;;14.50;99.90;;;;;;5068920;28;20032;-75
2022/10/23 07:49:49;;;;;;;9.98;7.88;;;14.60;99.90;;;;;;5066472;28;20055;-72
2022/10/23 07:52:14;;;;;;;9.02;7.15;;;14.70;99.90;;;;;;5072004;28;20052;-74
2022/10/23 07:54:41;;;;;;;12.52;8.48;;;14.70;99.90;;;;;;5074083;28;20020;-78
2022/10/23 07:57:06;;;;;;;9.88;7.28;;;14.80;99.90;;;;;;5071909;28;20067;-73
2022/10/23 07:59:33;;;;;;;9.13;7.05;;;14.80;99.90;;;;;;5072470;28;20013;-73
2022/10/23 08:01:59;;;;;;;10.18;7.85;;;14.90;99.90;;;;;;5051678;28;20025;-74
2022/10/23 08:04:25;;;;;;;14.55;7.63;;;14.90;99.90;;;;;;5065643;28;20048;-74
2022/10/23 08:06:51;;;;;;;9.73;6.95;;;15.00;99.90;;;;;;5070421;28;20111;-74
2022/10/23 08:09:19;;;;;;;11.90;7.60;;;15.10;99.90;;;;;;5071787;28;20028;-74
2022/10/23 08:11:44;;;;;;;11.82;7.50;;;15.10;99.90;;;;;;5071030;28;20028;-74
2022/10/23 08:14:11;;;;;;;9.57;7.22;;;15.20;99.90;;;;;;5071258;28;20058;-74
2022/10/23 08:16:38;;;;;;;9.55;6.63;;;15.20;99.90;;;;;;5071247;28;20040;-75
2022/10/23 08:19:05;;;;;;;8.40;6.93;;;15.30;99.90;;;;;;5071009;28;20097;-75
2022/10/23 08:21:32;;;;;;;8.10;7.25;;;15.40;99.90;;;;;;5069859;28;20024;-75
2022/10/23 08:23:59;;;;;;;12.30;8.40;;;15.40;99.90;;;;;;5070409;28;20036;-75
2022/10/23 08:26:28;;;;;;;9.18;6.75;;;15.40;99.90;;;;;;5070607;28;20033;-75
2022/10/23 08:28:54;;;;;;;9.00;6.90;;;15.50;99.90;;;;;;5069345;28;20025;-75
2022/10/23 08:31:20;;;;;;;10.80;7.00;;;15.50;99.90;;;;;;5069522;28;20491;-73
2022/10/23 08:33:46;;;;;;;9.68;7.75;;;15.50;99.90;;;;;;5069893;28;20060;-74
2022/10/23 08:36:24;;;;;;;10.32;6.95;;;15.50;99.90;;;;;;5074553;28;20032;-75
2022/10/23 08:38:54;;;;;;;8.70;6.95;;;15.60;99.90;;;;;;5074343;28;20029;-75
2022/10/23 08:41:31;;;;;;;8.30;6.35;;;15.60;99.90;;;;;;5064982;28;20519;-75
2022/10/23 08:44:10;;;;;;;12.02;5.97;;;15.60;99.90;;;;;;5072525;28;20032;-73
2022/10/23 08:46:41;;;;;;;9.55;6.32;;;15.60;99.90;;;;;;5067716;28;20020;-74
2022/10/23 08:49:21;;;;;;;9.10;6.68;;;15.60;99.90;;;;;;5061535;28;20032;-75
2022/10/23 08:51:50;;;;;;;8.40;5.93;;;15.60;99.90;;;;;;5071767;28;20016;-73
2022/10/23 08:54:21;;;;;;;8.82;5.72;;;15.60;99.90;;;;;;5074520;28;20038;-74
2022/10/23 08:57:00;;;;;;;9.23;6.03;;;15.70;99.90;;;;;;5074785;28;20036;-73
2022/10/23 08:59:38;;;;;;;9.32;5.70;;;15.70;99.90;;;;;;5077872;28;20036;-74
2022/10/23 09:02:06;;;;;;;10.55;5.15;;;15.70;99.90;;;;;;5073819;28;20037;-73
2022/10/23 09:04:33;;;;;;;7.78;4.72;;;15.80;99.90;;;;;;5057754;28;20442;-73
2022/10/23 09:07:17;;;;;;;9.63;5.28;;;15.80;99.90;;;;;;5073011;28;20153;-74
2022/10/23 09:09:54;;;;;;;8.55;5.05;;;15.80;99.90;;;;;;5074247;28;20029;-75
2022/10/23 09:12:22;;;;;;;7.03;4.97;;;15.80;99.90;;;;;;5073301;28;20036;-74
2022/10/23 09:15:16;;;;;;;7.60;4.88;;;15.80;99.90;;;;;;5072827;28;20123;-73
2022/10/23 09:17:43;;;;;;;7.45;4.82;;;15.90;99.90;;;;;;5073355;28;20047;-69
2022/10/23 09:20:21;;;;;;;7.95;5.93;;;15.90;99.90;;;;;;5073249;28;20116;-72
2022/10/23 09:22:56;;;;;;;11.10;4.45;;;16.00;99.90;;;;;;5073344;28;20107;-71
2022/10/23 09:25:28;;;;;;;6.50;4.35;;;16.00;99.90;;;;;;5073812;28;20037;-71
2022/10/23 09:27:56;;;;;;;7.45;5.15;;;16.10;99.90;;;;;;5071692;28;20033;-70
2022/10/23 09:30:40;;;;;;;10.35;5.35;;;16.10;99.90;;;;;;5072441;28;20032;-71
2022/10/23 09:33:21;;;;;;;7.72;4.75;;;16.20;99.90;;;;;;5068001;28;20132;-71
2022/10/23 09:35:59;;;;;;;10.52;4.53;;;16.20;99.90;;;;;;5072424;28;20052;-71
2022/10/23 09:38:33;;;;;;;9.05;4.30;;;16.20;99.90;;;;;;5072311;28;20039;-72
2022/10/23 09:41:26;;;;;;;9.30;4.88;;;16.20;99.90;;;;;;5073402;28;20031;-70
2022/10/23 09:44:01;;;;;;;8.55;4.30;;;16.30;99.90;;;;;;5036767;28;20052;-71
2022/10/23 09:46:43;;;;;;;9.70;4.40;;;16.30;99.90;;;;;;5067915;28;20025;-72
2022/10/23 09:49:30;;;;;;;7.63;4.60;;;16.40;99.90;;;;;;5063251;28;20025;-72
2022/10/23 09:52:00;;;;;;;10.32;4.60;;;16.50;99.90;;;;;;5071374;28;20040;-71
2022/10/23 09:54:29;;;;;;;11.27;4.72;;;16.50;99.90;;;;;;5072870;28;20032;-72
2022/10/23 09:57:01;;;;;;;8.90;4.03;;;16.60;99.90;;;;;;5069910;28;20024;-72
2022/10/23 09:59:30;;;;;;;8.90;3.95;;;16.60;99.90;;;;;;5072765;28;20025;-72
2022/10/23 10:01:59;;;;;;;7.70;4.50;;;16.70;99.90;;;;;;5073221;28;20028;-72
2022/10/23 10:04:51;;;;;;;6.72;4.13;;;16.80;99.90;;;;;;5071470;28;20036;-72
2022/10/23 10:07:28;;;;;;;9.98;3.75;;;16.80;99.90;;;;;;5070101;28;20039;-72
2022/10/23 10:09:56;;;;;;;6.78;3.53;;;16.80;99.90;;;;;;5072884;28;20499;-72
2022/10/23 10:12:56;;;;;;;6.05;3.80;;;17.00;99.90;;;;;;5071274;28;20029;-73
2022/10/23 10:15:41;;;;;;;4.78;3.38;;;17.00;99.90;;;;;;5064919;28;20029;-73
2022/10/23 10:18:41;;;;;;;7.05;3.28;;;17.10;99.90;;;;;;5072642;28;20151;-73
2022/10/23 10:21:28;;;;;;;5.00;3.47;;;17.20;99.90;;;;;;5051750;28;20502;-73
2022/10/23 10:24:03;;;;;;;5.32;3.40;;;17.20;99.90;;;;;;5070605;28;20052;-74
2022/10/23 10:27:23;;;;;;;10.60;3.95;;;17.30;99.90;;;;;;5070539;28;20060;-79
2022/10/23 10:30:03;;;;;;;4.40;2.92;;;17.40;99.90;;;;;;5014946;28;20029;-75
2022/10/23 10:32:37;;;;;;;4.88;3.38;;;17.40;99.90;;;;;;5072224;28;20033;-75
2022/10/23 10:35:36;;;;;;;9.48;4.05;;;17.40;99.90;;;;;;5072430;28;20039;-75
2022/10/23 10:38:19;;;;;;;6.20;3.78;;;17.50;99.90;;;;;;5048006;28;20037;-75
2022/10/23 10:40:56;;;;;;;7.60;3.60;;;17.60;99.90;;;;;;5072466;28;20123;-75
2022/10/23 10:43:27;;;;;;;6.30;3.78;;;17.60;99.90;;;;;;5068254;28;20025;-75
2022/10/23 10:45:52;;;;;;;4.85;3.50;;;17.70;99.90;;;;;;5070195;28;20025;-74
2022/10/23 10:48:33;;;;;;;7.45;4.25;;;17.70;99.90;;;;;;5071553;28;20387;-75
2022/10/23 10:51:04;;;;;;;8.23;4.13;;;17.70;99.90;;;;;;5071116;28;20403;-75
2022/10/23 10:53:57;;;;;;;8.77;3.78;;;17.80;99.90;;;;;;5073093;28;20033;-74
2022/10/23 10:56:28;;;;;;;7.53;4.55;;;17.80;99.90;;;;;;5051869;28;20036;-74
2022/10/23 10:59:01;;;;;;;4.88;3.75;;;17.90;99.90;;;;;;5064209;28;20423;-74
2022/10/23 11:01:44;;;;;;;9.70;4.60;;;18.00;99.90;;;;;;5072218;28;20021;-74
2022/10/23 11:04:44;;;;;;;9.20;4.68;;;18.00;99.90;;;;;;5071055;28;20037;-74
2022/10/23 11:07:41;;;;;;;6.90;4.50;;;18.10;99.90;;;;;;5068314;28;20027;-74
2022/10/23 11:10:18;;;;;;;8.05;5.20;;;18.20;99.90;;;;;;5071033;28;20444;-75
2022/10/23 11:12:46;;;;;;;7.55;5.18;;;18.30;99.90;;;;;;5070011;28;20030;-74
2022/10/23 11:15:19;;;;;;;7.43;4.70;;;18.30;99.90;;;;;;5069784;28;20430;-73
2022/10/23 11:17:51;;;;;;;6.93;4.93;;;18.40;99.90;;;;;;5068408;28;20021;-73
2022/10/23 11:20:31;;;;;;;5.65;4.70;;;18.40;99.90;;;;;;5070512;28;20032;-74
2022/10/23 11:23:15;;;;;;;10.32;5.28;;;18.50;99.90;;;;;;5071739;28;20060;-73
2022/10/23 11:26:00;;;;;;;5.88;4.18;;;18.60;99.90;;;;;;5070822;28;20040;-74
2022/10/23 11:29:04;;;;;;;6.38;4.97;;;18.70;99.90;;;;;;5071920;28;20526;-75
2022/10/23 11:32:02;;;;;;;5.10;3.90;;;18.80;99.90;;;;;;5062411;28;20029;-75
2022/10/23 11:35:01;;;;;;;6.15;3.53;;;19.00;99.90;;;;;;5064685;28;20123;-77
2022/10/23 11:37:27;;;;;;;5.88;3.75;;;19.00;99.90;;;;;;5070293;28;20054;-77
2022/10/23 11:40:05;;;;;;;6.03;3.70;;;19.10;99.90;;;;;;5071366;28;20530;-74
2022/10/23 11:42:40;;;;;;;5.78;3.65;;;19.10;99.90;;;;;;5070666;28;20447;-77
2022/10/23 11:45:31;;;;;;;10.68;3.92;;;19.20;99.90;;;;;;5070016;28;20764;-76
2022/10/23 11:48:21;;;;;;;6.05;3.53;;;19.30;99.90;;;;;;5064006;28;20106;-76
2022/10/23 11:50:47;;;;;;;5.65;3.50;;;19.30;99.90;;;;;;5062416;28;20487;-77
2022/10/23 11:53:41;;;;;;;5.50;2.92;;;19.30;99.90;;;;;;5072094;28;20025;-77
2022/10/23 11:56:18;;;;;;;4.25;2.85;;;19.30;99.90;;;;;;5027211;28;20097;-73
2022/10/23 11:58:56;;;;;;;6.90;2.95;;;19.30;99.90;;;;;;5035970;28;20286;-75
2022/10/23 12:01:41;;;;;;;5.60;3.05;;;19.30;99.90;;;;;;5068450;28;20488;-76
2022/10/23 12:04:13;;;;;;;6.15;3.63;;;19.40;99.90;;;;;;5070610;28;20051;-77
2022/10/23 12:06:47;;;;;;;5.30;2.60;;;19.40;99.90;;;;;;5071217;28;20459;-75
2022/10/23 12:09:24;;;;;;;9.43;3.60;;;19.40;99.90;;;;;;5073903;28;20024;-75
2022/10/23 12:12:08;;;;;;;5.00;2.72;;;19.40;99.90;;;;;;5075827;28;20399;-76
2022/10/23 12:14:44;;;;;;;6.18;3.03;;;19.50;99.90;;;;;;5075477;28;20025;-74
2022/10/23 12:17:21;;;;;;;5.28;2.60;;;19.50;99.90;;;;;;5075341;28;20025;-74
2022/10/23 12:19:51;;;;;;;6.13;2.88;;;19.50;99.90;;;;;;5075083;28;20545;-75
2022/10/23 12:22:20;;;;;;;6.05;3.38;;;19.50;99.90;;;;;;5075748;28;20036;-74
2022/10/23 12:25:05;;;;;;;5.00;3.00;;;19.50;99.80;;;;;;5073731;28;20522;-75
2022/10/23 12:27:50;;;;;;;4.90;2.75;;;19.60;99.90;;;;;;5075291;28;20039;-75
2022/10/23 12:30:31;;;;;;;4.63;2.45;;;19.60;99.80;;;;;;5075511;28;20032;-75
2022/10/23 12:33:25;;;;;;;5.57;2.67;;;19.70;99.60;;;;;;5074339;28;20105;-75
2022/10/23 12:36:12;;;;;;;6.55;3.20;;;19.70;99.60;;;;;;5074049;28;20028;-74
2022/10/23 12:38:45;;;;;;;6.65;3.00;;;19.70;99.60;;;;;;5077836;28;20114;-75
2022/10/23 12:41:25;;;;;;;5.68;3.10;;;19.70;99.50;;;;;;5079516;28;20464;-75
2022/10/23 12:44:00;;;;;;;6.20;2.97;;;19.70;99.50;;;;;;5075090;28;20044;-75
2022/10/23 12:46:39;;;;;;;6.22;2.60;;;19.70;99.40;;;;;;5072907;28;20025;-76
2022/10/23 12:49:18;;;;;;;6.15;2.20;;;19.70;99.40;;;;;;5075094;28;20032;-75
2022/10/23 12:51:44;;;;;;;6.45;2.72;;;19.60;99.40;;;;;;5059852;28;20104;-75
2022/10/23 12:54:18;;;;;;;6.30;2.70;;;19.70;99.40;;;;;;5074508;28;20077;-74
2022/10/23 12:56:44;;;;;;;;;;;19.70;99.30;;;;;;5075341;28;20032;-75
2022/10/23 12:59:40;;;;;;;3.65;2.28;;;19.80;99.60;;;;;;5074438;28;19908;-75
2022/10/23 13:02:23;;;;;;;6.63;2.55;;;19.70;99.40;;;;;;5074824;28;20039;-74
2022/10/23 13:04:52;;;;;;;6.30;2.35;;;19.70;99.30;;;;;;5073972;28;20044;-74
2022/10/23 13:07:24;;;;;;;6.55;2.60;;;19.70;99.10;;;;;;5073786;28;20028;-74
2022/10/23 13:09:51;;;;;;;3.85;2.00;;;19.70;99.20;;;;;;5073773;28;20043;-74